sensor_id;sensor_type;location;lat;lon;timestamp;P1;durP1;ratioP1;P2;durP2;ratioP2
82473;SDS011;72350;53.232;6.556;2023-09-07T00:00:35;5.03;;;2.90;;
82473;SDS011;72350;53.232;6.556;2023-09-07T00:03:03;3.53;;;3.00;;
82473;SDS011;72350;53.232;6.556;2023-09-07T00:05:31;5.78;;;3.03;;
82473;SDS011;72350;53.232;6.556;2023-09-07T00:07:59;2.97;;;2.72;;
82473;SDS011;72350;53.232;6.556;2023-09-07T00:10:27;8.05;;;2.90;;
82473;SDS011;72350;53.232;6.556;2023-09-07T00:12:56;5.55;;;2.90;;
82473;SDS011;72350;53.232;6.556;2023-09-07T00:15:24;4.68;;;3.15;;
82473;SDS011;72350;53.232;6.556;2023-09-07T00:17:52;6.10;;;3.42;;
82473;SDS011;72350;53.232;6.556;2023-09-07T00:20:20;4.38;;;2.95;;
82473;SDS011;72350;53.232;6.556;2023-09-07T00:22:49;5.72;;;3.40;;
82473;SDS011;72350;53.232;6.556;2023-09-07T00:25:17;5.30;;;3.17;;
82473;SDS011;72350;53.232;6.556;2023-09-07T00:27:46;2.75;;;2.50;;
82473;SDS011;72350;53.232;6.556;2023-09-07T00:30:16;5.95;;;3.00;;
82473;SDS011;72350;53.232;6.556;2023-09-07T00:32:43;4.28;;;2.90;;
82473;SDS011;72350;53.232;6.556;2023-09-07T00:35:11;3.33;;;3.00;;
82473;SDS011;72350;53.232;6.556;2023-09-07T00:37:39;3.58;;;2.80;;
82473;SDS011;72350;53.232;6.556;2023-09-07T00:40:07;3.95;;;3.22;;
82473;SDS011;72350;53.232;6.556;2023-09-07T00:42:36;6.30;;;3.40;;
82473;SDS011;72350;53.232;6.556;2023-09-07T00:45:04;5.53;;;2.80;;
82473;SDS011;72350;53.232;6.556;2023-09-07T00:47:34;4.15;;;3.45;;
82473;SDS011;72350;53.232;6.556;2023-09-07T00:50:04;4.78;;;3.22;;
82473;SDS011;72350;53.232;6.556;2023-09-07T00:52:34;4.25;;;2.97;;
82473;SDS011;72350;53.232;6.556;2023-09-07T00:57:36;4.72;;;2.90;;
82473;SDS011;72350;53.232;6.556;2023-09-07T01:00:06;6.53;;;3.33;;
82473;SDS011;72350;53.232;6.556;2023-09-07T01:02:36;3.40;;;3.08;;
82473;SDS011;72350;53.232;6.556;2023-09-07T01:05:04;3.38;;;3.08;;
82473;SDS011;72350;53.232;6.556;2023-09-07T01:07:35;5.28;;;2.83;;
82473;SDS011;72350;53.232;6.556;2023-09-07T01:10:07;4.00;;;3.28;;
82473;SDS011;72350;53.232;6.556;2023-09-07T01:12:35;4.03;;;3.08;;
82473;SDS011;72350;53.232;6.556;2023-09-07T01:15:03;4.10;;;3.05;;
82473;SDS011;72350;53.232;6.556;2023-09-07T01:17:32;5.47;;;3.22;;
82473;SDS011;72350;53.232;6.556;2023-09-07T01:20:04;2.95;;;2.75;;
82473;SDS011;72350;53.232;6.556;2023-09-07T01:22:37;5.25;;;3.05;;
82473;SDS011;72350;53.232;6.556;2023-09-07T01:25:06;4.90;;;2.65;;
82473;SDS011;72350;53.232;6.556;2023-09-07T01:27:35;6.45;;;3.03;;
82473;SDS011;72350;53.232;6.556;2023-09-07T01:30:03;3.88;;;2.85;;
82473;SDS011;72350;53.232;6.556;2023-09-07T01:32:32;6.35;;;3.42;;
82473;SDS011;72350;53.232;6.556;2023-09-07T01:35:01;3.40;;;3.10;;
82473;SDS011;72350;53.232;6.556;2023-09-07T01:37:32;5.40;;;3.33;;
82473;SDS011;72350;53.232;6.556;2023-09-07T01:40:02;6.15;;;3.47;;
82473;SDS011;72350;53.232;6.556;2023-09-07T01:42:33;5.47;;;3.47;;
82473;SDS011;72350;53.232;6.556;2023-09-07T01:45:01;4.40;;;3.08;;
82473;SDS011;72350;53.232;6.556;2023-09-07T01:47:29;6.82;;;3.60;;
82473;SDS011;72350;53.232;6.556;2023-09-07T01:49:58;3.88;;;3.03;;
82473;SDS011;72350;53.232;6.556;2023-09-07T01:52:26;4.20;;;2.95;;
82473;SDS011;72350;53.232;6.556;2023-09-07T01:54:55;3.22;;;2.95;;
82473;SDS011;72350;53.232;6.556;2023-09-07T01:57:26;2.90;;;2.53;;
82473;SDS011;72350;53.232;6.556;2023-09-07T01:59:53;5.55;;;3.17;;
82473;SDS011;72350;53.232;6.556;2023-09-07T02:02:21;4.25;;;3.55;;
82473;SDS011;72350;53.232;6.556;2023-09-07T02:04:50;3.78;;;3.17;;
82473;SDS011;72350;53.232;6.556;2023-09-07T02:07:18;5.25;;;3.60;;
82473;SDS011;72350;53.232;6.556;2023-09-07T02:09:46;5.32;;;3.00;;
82473;SDS011;72350;53.232;6.556;2023-09-07T02:12:14;3.65;;;3.33;;
82473;SDS011;72350;53.232;6.556;2023-09-07T02:14:43;5.13;;;3.40;;
82473;SDS011;72350;53.232;6.556;2023-09-07T02:17:12;3.50;;;3.20;;
82473;SDS011;72350;53.232;6.556;2023-09-07T02:19:44;5.13;;;3.33;;
82473;SDS011;72350;53.232;6.556;2023-09-07T02:22:12;3.85;;;3.58;;
82473;SDS011;72350;53.232;6.556;2023-09-07T02:24:40;5.43;;;3.63;;
82473;SDS011;72350;53.232;6.556;2023-09-07T02:27:08;8.55;;;3.20;;
82473;SDS011;72350;53.232;6.556;2023-09-07T02:29:36;5.97;;;3.58;;
82473;SDS011;72350;53.232;6.556;2023-09-07T02:32:06;5.15;;;3.65;;
82473;SDS011;72350;53.232;6.556;2023-09-07T02:34:35;4.13;;;3.78;;
82473;SDS011;72350;53.232;6.556;2023-09-07T02:37:04;5.35;;;3.10;;
82473;SDS011;72350;53.232;6.556;2023-09-07T02:39:32;3.70;;;3.30;;
82473;SDS011;72350;53.232;6.556;2023-09-07T02:42:00;3.75;;;3.45;;
82473;SDS011;72350;53.232;6.556;2023-09-07T02:44:29;6.25;;;3.83;;
82473;SDS011;72350;53.232;6.556;2023-09-07T02:46:56;3.53;;;3.20;;
82473;SDS011;72350;53.232;6.556;2023-09-07T02:49:26;3.90;;;3.50;;
82473;SDS011;72350;53.232;6.556;2023-09-07T02:51:53;5.85;;;3.72;;
82473;SDS011;72350;53.232;6.556;2023-09-07T02:54:22;4.13;;;3.75;;
82473;SDS011;72350;53.232;6.556;2023-09-07T02:56:52;6.65;;;3.20;;
82473;SDS011;72350;53.232;6.556;2023-09-07T02:59:20;5.70;;;3.72;;
82473;SDS011;72350;53.232;6.556;2023-09-07T03:01:48;4.72;;;3.30;;
82473;SDS011;72350;53.232;6.556;2023-09-07T03:04:16;5.82;;;3.42;;
82473;SDS011;72350;53.232;6.556;2023-09-07T03:06:45;4.45;;;3.20;;
82473;SDS011;72350;53.232;6.556;2023-09-07T03:09:13;7.45;;;3.97;;
82473;SDS011;72350;53.232;6.556;2023-09-07T03:11:41;6.35;;;4.13;;
82473;SDS011;72350;53.232;6.556;2023-09-07T03:14:09;4.82;;;3.55;;
82473;SDS011;72350;53.232;6.556;2023-09-07T03:16:37;5.22;;;3.90;;
82473;SDS011;72350;53.232;6.556;2023-09-07T03:19:07;6.25;;;3.83;;
82473;SDS011;72350;53.232;6.556;2023-09-07T03:21:35;6.35;;;3.38;;
82473;SDS011;72350;53.232;6.556;2023-09-07T03:24:05;3.72;;;3.47;;
82473;SDS011;72350;53.232;6.556;2023-09-07T03:26:33;4.05;;;3.65;;
82473;SDS011;72350;53.232;6.556;2023-09-07T03:29:01;5.15;;;4.22;;
82473;SDS011;72350;53.232;6.556;2023-09-07T03:31:30;3.80;;;3.42;;
82473;SDS011;72350;53.232;6.556;2023-09-07T03:33:58;4.70;;;3.55;;
82473;SDS011;72350;53.232;6.556;2023-09-07T03:36:26;6.28;;;3.80;;
82473;SDS011;72350;53.232;6.556;2023-09-07T03:38:54;6.55;;;3.75;;
82473;SDS011;72350;53.232;6.556;2023-09-07T03:41:23;6.93;;;4.00;;
82473;SDS011;72350;53.232;6.556;2023-09-07T03:43:56;3.90;;;3.50;;
82473;SDS011;72350;53.232;6.556;2023-09-07T03:46:26;8.23;;;4.15;;
82473;SDS011;72350;53.232;6.556;2023-09-07T03:48:54;4.75;;;3.90;;
82473;SDS011;72350;53.232;6.556;2023-09-07T03:51:22;5.70;;;3.72;;
82473;SDS011;72350;53.232;6.556;2023-09-07T03:53:51;4.30;;;3.90;;
82473;SDS011;72350;53.232;6.556;2023-09-07T03:56:21;6.35;;;4.00;;
82473;SDS011;72350;53.232;6.556;2023-09-07T03:58:51;4.68;;;4.22;;
82473;SDS011;72350;53.232;6.556;2023-09-07T04:01:19;5.45;;;4.72;;
82473;SDS011;72350;53.232;6.556;2023-09-07T04:03:47;5.30;;;4.55;;
82473;SDS011;72350;53.232;6.556;2023-09-07T04:06:17;5.32;;;3.83;;
82473;SDS011;72350;53.232;6.556;2023-09-07T04:08:45;5.20;;;4.00;;
82473;SDS011;72350;53.232;6.556;2023-09-07T04:11:13;7.13;;;4.93;;
82473;SDS011;72350;53.232;6.556;2023-09-07T04:13:41;5.10;;;4.57;;
82473;SDS011;72350;53.232;6.556;2023-09-07T04:16:10;4.38;;;3.88;;
82473;SDS011;72350;53.232;6.556;2023-09-07T04:18:38;4.55;;;4.22;;
82473;SDS011;72350;53.232;6.556;2023-09-07T04:21:06;4.95;;;4.38;;
82473;SDS011;72350;53.232;6.556;2023-09-07T04:23:35;4.93;;;3.80;;
82473;SDS011;72350;53.232;6.556;2023-09-07T04:26:05;4.93;;;4.45;;
82473;SDS011;72350;53.232;6.556;2023-09-07T04:28:34;5.35;;;4.32;;
82473;SDS011;72350;53.232;6.556;2023-09-07T04:31:03;5.70;;;4.30;;
82473;SDS011;72350;53.232;6.556;2023-09-07T04:33:32;6.70;;;4.55;;
82473;SDS011;72350;53.232;6.556;2023-09-07T04:36:06;4.63;;;4.22;;
82473;SDS011;72350;53.232;6.556;2023-09-07T04:38:35;6.18;;;4.40;;
82473;SDS011;72350;53.232;6.556;2023-09-07T04:41:07;5.07;;;4.50;;
82473;SDS011;72350;53.232;6.556;2023-09-07T04:43:35;4.53;;;3.80;;
82473;SDS011;72350;53.232;6.556;2023-09-07T04:46:04;4.43;;;3.90;;
82473;SDS011;72350;53.232;6.556;2023-09-07T04:48:33;6.15;;;3.70;;
82473;SDS011;72350;53.232;6.556;2023-09-07T04:51:02;5.40;;;4.40;;
82473;SDS011;72350;53.232;6.556;2023-09-07T04:53:32;8.93;;;4.60;;
82473;SDS011;72350;53.232;6.556;2023-09-07T04:56:03;4.68;;;4.22;;
82473;SDS011;72350;53.232;6.556;2023-09-07T04:58:32;4.90;;;4.13;;
82473;SDS011;72350;53.232;6.556;2023-09-07T05:01:01;5.75;;;3.75;;
82473;SDS011;72350;53.232;6.556;2023-09-07T05:03:32;4.80;;;4.30;;
82473;SDS011;72350;53.232;6.556;2023-09-07T05:06:00;6.82;;;4.05;;
82473;SDS011;72350;53.232;6.556;2023-09-07T05:08:29;6.32;;;3.95;;
82473;SDS011;72350;53.232;6.556;2023-09-07T05:10:58;6.30;;;4.70;;
82473;SDS011;72350;53.232;6.556;2023-09-07T05:13:27;5.85;;;4.50;;
82473;SDS011;72350;53.232;6.556;2023-09-07T05:15:57;14.15;;;11.45;;
82473;SDS011;72350;53.232;6.556;2023-09-07T05:18:27;64.78;;;46.25;;
82473;SDS011;72350;53.232;6.556;2023-09-07T05:20:58;87.20;;;60.92;;
82473;SDS011;72350;53.232;6.556;2023-09-07T05:23:25;83.10;;;56.65;;
82473;SDS011;72350;53.232;6.556;2023-09-07T05:25:54;61.10;;;43.03;;
82473;SDS011;72350;53.232;6.556;2023-09-07T05:28:25;9.20;;;8.30;;
82473;SDS011;72350;53.232;6.556;2023-09-07T05:30:55;7.03;;;5.82;;
82473;SDS011;72350;53.232;6.556;2023-09-07T05:33:23;9.32;;;7.97;;
82473;SDS011;72350;53.232;6.556;2023-09-07T05:35:52;11.52;;;8.32;;
82473;SDS011;72350;53.232;6.556;2023-09-07T05:38:21;9.32;;;7.10;;
82473;SDS011;72350;53.232;6.556;2023-09-07T05:40:49;7.85;;;7.03;;
82473;SDS011;72350;53.232;6.556;2023-09-07T05:43:24;22.50;;;14.98;;
82473;SDS011;72350;53.232;6.556;2023-09-07T05:45:52;14.13;;;10.90;;
82473;SDS011;72350;53.232;6.556;2023-09-07T05:48:20;9.93;;;8.30;;
82473;SDS011;72350;53.232;6.556;2023-09-07T05:50:48;9.18;;;7.80;;
82473;SDS011;72350;53.232;6.556;2023-09-07T05:53:18;19.08;;;13.68;;
82473;SDS011;72350;53.232;6.556;2023-09-07T05:55:47;7.00;;;6.30;;
82473;SDS011;72350;53.232;6.556;2023-09-07T05:58:15;11.57;;;5.93;;
82473;SDS011;72350;53.232;6.556;2023-09-07T06:00:43;12.20;;;7.32;;
82473;SDS011;72350;53.232;6.556;2023-09-07T06:03:11;6.95;;;6.07;;
82473;SDS011;72350;53.232;6.556;2023-09-07T06:05:40;8.63;;;6.40;;
82473;SDS011;72350;53.232;6.556;2023-09-07T06:08:09;8.75;;;6.65;;
82473;SDS011;72350;53.232;6.556;2023-09-07T06:10:37;10.52;;;7.25;;
82473;SDS011;72350;53.232;6.556;2023-09-07T06:13:08;9.52;;;6.32;;
82473;SDS011;72350;53.232;6.556;2023-09-07T06:15:36;8.32;;;6.22;;
82473;SDS011;72350;53.232;6.556;2023-09-07T06:18:04;11.30;;;6.25;;
82473;SDS011;72350;53.232;6.556;2023-09-07T06:20:33;9.93;;;7.03;;
82473;SDS011;72350;53.232;6.556;2023-09-07T06:23:02;8.80;;;6.25;;
82473;SDS011;72350;53.232;6.556;2023-09-07T06:25:32;8.35;;;6.63;;
82473;SDS011;72350;53.232;6.556;2023-09-07T06:28:00;13.50;;;8.82;;
82473;SDS011;72350;53.232;6.556;2023-09-07T06:30:30;12.38;;;9.10;;
82473;SDS011;72350;53.232;6.556;2023-09-07T06:32:59;8.55;;;5.90;;
82473;SDS011;72350;53.232;6.556;2023-09-07T06:35:27;8.20;;;5.65;;
82473;SDS011;72350;53.232;6.556;2023-09-07T06:37:54;9.52;;;6.10;;
82473;SDS011;72350;53.232;6.556;2023-09-07T06:40:25;7.82;;;5.35;;
82473;SDS011;72350;53.232;6.556;2023-09-07T06:42:56;15.15;;;10.80;;
82473;SDS011;72350;53.232;6.556;2023-09-07T06:45:25;20.73;;;14.60;;
82473;SDS011;72350;53.232;6.556;2023-09-07T06:47:55;22.70;;;15.15;;
82473;SDS011;72350;53.232;6.556;2023-09-07T06:50:24;9.38;;;6.10;;
82473;SDS011;72350;53.232;6.556;2023-09-07T06:52:52;6.97;;;6.30;;
82473;SDS011;72350;53.232;6.556;2023-09-07T06:55:20;8.15;;;5.78;;
82473;SDS011;72350;53.232;6.556;2023-09-07T06:57:49;8.10;;;6.78;;
82473;SDS011;72350;53.232;6.556;2023-09-07T07:00:16;12.13;;;7.65;;
82473;SDS011;72350;53.232;6.556;2023-09-07T07:02:45;8.70;;;6.57;;
82473;SDS011;72350;53.232;6.556;2023-09-07T07:05:15;10.05;;;8.43;;
82473;SDS011;72350;53.232;6.556;2023-09-07T07:07:44;10.25;;;6.82;;
82473;SDS011;72350;53.232;6.556;2023-09-07T07:10:12;8.57;;;7.25;;
82473;SDS011;72350;53.232;6.556;2023-09-07T07:12:40;11.70;;;6.47;;
82473;SDS011;72350;53.232;6.556;2023-09-07T07:15:08;11.75;;;6.85;;
82473;SDS011;72350;53.232;6.556;2023-09-07T07:17:39;11.60;;;7.05;;
82473;SDS011;72350;53.232;6.556;2023-09-07T07:20:08;8.18;;;5.07;;
82473;SDS011;72350;53.232;6.556;2023-09-07T07:22:38;18.13;;;6.45;;
82473;SDS011;72350;53.232;6.556;2023-09-07T07:25:06;8.27;;;5.85;;
82473;SDS011;72350;53.232;6.556;2023-09-07T07:27:35;9.20;;;7.82;;
82473;SDS011;72350;53.232;6.556;2023-09-07T07:30:03;5.75;;;5.13;;
82473;SDS011;72350;53.232;6.556;2023-09-07T07:32:32;8.93;;;5.18;;
82473;SDS011;72350;53.232;6.556;2023-09-07T07:35:00;9.25;;;6.78;;
82473;SDS011;72350;53.232;6.556;2023-09-07T07:37:28;12.40;;;6.53;;
82473;SDS011;72350;53.232;6.556;2023-09-07T07:39:58;7.88;;;5.75;;
82473;SDS011;72350;53.232;6.556;2023-09-07T07:42:27;7.90;;;5.70;;
82473;SDS011;72350;53.232;6.556;2023-09-07T07:44:55;7.63;;;5.90;;
82473;SDS011;72350;53.232;6.556;2023-09-07T07:47:23;7.68;;;6.43;;
82473;SDS011;72350;53.232;6.556;2023-09-07T07:49:53;7.50;;;5.80;;
82473;SDS011;72350;53.232;6.556;2023-09-07T07:52:21;10.07;;;5.68;;
82473;SDS011;72350;53.232;6.556;2023-09-07T07:54:51;5.53;;;4.97;;
82473;SDS011;72350;53.232;6.556;2023-09-07T07:57:22;7.20;;;6.43;;
82473;SDS011;72350;53.232;6.556;2023-09-07T07:59:50;6.57;;;5.03;;
82473;SDS011;72350;53.232;6.556;2023-09-07T08:02:18;7.03;;;5.18;;
82473;SDS011;72350;53.232;6.556;2023-09-07T08:04:47;7.97;;;5.90;;
82473;SDS011;72350;53.232;6.556;2023-09-07T08:07:16;9.10;;;5.57;;
82473;SDS011;72350;53.232;6.556;2023-09-07T08:09:44;5.95;;;5.20;;
82473;SDS011;72350;53.232;6.556;2023-09-07T08:12:12;6.60;;;5.47;;
82473;SDS011;72350;53.232;6.556;2023-09-07T08:14:42;5.82;;;4.75;;
82473;SDS011;72350;53.232;6.556;2023-09-07T08:17:10;7.57;;;5.57;;
82473;SDS011;72350;53.232;6.556;2023-09-07T08:19:39;8.13;;;6.20;;
82473;SDS011;72350;53.232;6.556;2023-09-07T08:22:06;6.65;;;5.95;;
82473;SDS011;72350;53.232;6.556;2023-09-07T08:24:35;7.45;;;5.22;;
82473;SDS011;72350;53.232;6.556;2023-09-07T08:27:03;6.10;;;5.50;;
82473;SDS011;72350;53.232;6.556;2023-09-07T08:29:31;6.38;;;5.70;;
82473;SDS011;72350;53.232;6.556;2023-09-07T08:32:01;7.03;;;5.78;;
82473;SDS011;72350;53.232;6.556;2023-09-07T08:34:31;6.57;;;5.97;;
82473;SDS011;72350;53.232;6.556;2023-09-07T08:36:58;7.05;;;6.22;;
82473;SDS011;72350;53.232;6.556;2023-09-07T08:39:26;8.68;;;6.30;;
82473;SDS011;72350;53.232;6.556;2023-09-07T08:41:54;9.23;;;6.80;;
82473;SDS011;72350;53.232;6.556;2023-09-07T08:44:28;8.77;;;5.35;;
82473;SDS011;72350;53.232;6.556;2023-09-07T08:46:57;9.30;;;5.78;;
82473;SDS011;72350;53.232;6.556;2023-09-07T08:49:27;6.80;;;5.13;;
82473;SDS011;72350;53.232;6.556;2023-09-07T08:51:57;6.25;;;5.20;;
82473;SDS011;72350;53.232;6.556;2023-09-07T08:54:27;6.55;;;5.57;;
82473;SDS011;72350;53.232;6.556;2023-09-07T08:56:56;4.93;;;4.53;;
82473;SDS011;72350;53.232;6.556;2023-09-07T08:59:25;7.75;;;5.95;;
82473;SDS011;72350;53.232;6.556;2023-09-07T09:01:55;8.63;;;5.82;;
82473;SDS011;72350;53.232;6.556;2023-09-07T09:04:25;12.23;;;6.05;;
82473;SDS011;72350;53.232;6.556;2023-09-07T09:06:55;7.20;;;5.10;;
82473;SDS011;72350;53.232;6.556;2023-09-07T09:09:25;8.90;;;5.10;;
82473;SDS011;72350;53.232;6.556;2023-09-07T09:11:53;7.82;;;4.85;;
82473;SDS011;72350;53.232;6.556;2023-09-07T09:14:21;6.30;;;4.60;;
82473;SDS011;72350;53.232;6.556;2023-09-07T09:16:49;10.18;;;5.30;;
82473;SDS011;72350;53.232;6.556;2023-09-07T09:19:18;9.65;;;5.30;;
82473;SDS011;72350;53.232;6.556;2023-09-07T09:21:46;7.40;;;4.63;;
82473;SDS011;72350;53.232;6.556;2023-09-07T09:24:17;8.90;;;5.20;;
82473;SDS011;72350;53.232;6.556;2023-09-07T09:26:45;7.05;;;4.72;;
82473;SDS011;72350;53.232;6.556;2023-09-07T09:29:13;12.63;;;5.28;;
82473;SDS011;72350;53.232;6.556;2023-09-07T09:31:41;5.63;;;4.60;;
82473;SDS011;72350;53.232;6.556;2023-09-07T09:34:09;5.07;;;4.00;;
82473;SDS011;72350;53.232;6.556;2023-09-07T09:36:40;5.22;;;4.15;;
82473;SDS011;72350;53.232;6.556;2023-09-07T09:39:09;6.15;;;4.20;;
82473;SDS011;72350;53.232;6.556;2023-09-07T09:41:40;8.40;;;5.05;;
82473;SDS011;72350;53.232;6.556;2023-09-07T09:44:08;6.93;;;4.18;;
82473;SDS011;72350;53.232;6.556;2023-09-07T09:46:37;7.47;;;4.30;;
82473;SDS011;72350;53.232;6.556;2023-09-07T09:49:07;8.00;;;4.53;;
82473;SDS011;72350;53.232;6.556;2023-09-07T09:51:38;6.05;;;4.25;;
82473;SDS011;72350;53.232;6.556;2023-09-07T09:54:10;5.35;;;4.18;;
82473;SDS011;72350;53.232;6.556;2023-09-07T09:56:40;7.07;;;4.47;;
82473;SDS011;72350;53.232;6.556;2023-09-07T09:59:08;7.50;;;4.30;;
82473;SDS011;72350;53.232;6.556;2023-09-07T10:01:37;5.85;;;4.32;;
82473;SDS011;72350;53.232;6.556;2023-09-07T10:04:11;6.72;;;3.97;;
82473;SDS011;72350;53.232;6.556;2023-09-07T10:06:50;6.20;;;4.18;;
82473;SDS011;72350;53.232;6.556;2023-09-07T10:09:20;5.20;;;4.22;;
82473;SDS011;72350;53.232;6.556;2023-09-07T10:11:53;8.38;;;4.35;;
82473;SDS011;72350;53.232;6.556;2023-09-07T10:14:21;10.00;;;4.20;;
82473;SDS011;72350;53.232;6.556;2023-09-07T10:16:53;6.00;;;4.20;;
82473;SDS011;72350;53.232;6.556;2023-09-07T10:19:25;6.72;;;4.18;;
82473;SDS011;72350;53.232;6.556;2023-09-07T10:21:54;7.32;;;4.00;;
82473;SDS011;72350;53.232;6.556;2023-09-07T10:24:25;4.68;;;4.00;;
82473;SDS011;72350;53.232;6.556;2023-09-07T10:26:59;6.03;;;4.40;;
82473;SDS011;72350;53.232;6.556;2023-09-07T10:29:28;6.57;;;4.53;;
82473;SDS011;72350;53.232;6.556;2023-09-07T10:31:56;5.75;;;3.75;;
82473;SDS011;72350;53.232;6.556;2023-09-07T10:34:35;6.10;;;4.38;;
82473;SDS011;72350;53.232;6.556;2023-09-07T10:37:04;8.23;;;3.95;;
82473;SDS011;72350;53.232;6.556;2023-09-07T10:39:33;5.93;;;4.43;;
82473;SDS011;72350;53.232;6.556;2023-09-07T10:42:02;7.55;;;4.07;;
82473;SDS011;72350;53.232;6.556;2023-09-07T10:44:31;6.70;;;4.18;;
82473;SDS011;72350;53.232;6.556;2023-09-07T10:46:59;5.97;;;3.90;;
82473;SDS011;72350;53.232;6.556;2023-09-07T10:49:27;5.75;;;3.80;;
82473;SDS011;72350;53.232;6.556;2023-09-07T10:51:55;6.20;;;3.78;;
82473;SDS011;72350;53.232;6.556;2023-09-07T10:54:23;5.05;;;4.07;;
82473;SDS011;72350;53.232;6.556;2023-09-07T10:56:54;4.75;;;4.15;;
82473;SDS011;72350;53.232;6.556;2023-09-07T10:59:25;6.97;;;4.38;;
82473;SDS011;72350;53.232;6.556;2023-09-07T11:01:55;5.95;;;4.03;;
82473;SDS011;72350;53.232;6.556;2023-09-07T11:04:31;7.85;;;3.75;;
82473;SDS011;72350;53.232;6.556;2023-09-07T11:06:59;5.93;;;3.95;;
82473;SDS011;72350;53.232;6.556;2023-09-07T11:09:29;6.22;;;3.78;;
82473;SDS011;72350;53.232;6.556;2023-09-07T11:12:03;5.90;;;3.80;;
82473;SDS011;72350;53.232;6.556;2023-09-07T11:14:33;10.93;;;3.47;;
82473;SDS011;72350;53.232;6.556;2023-09-07T11:17:01;7.00;;;3.92;;
82473;SDS011;72350;53.232;6.556;2023-09-07T11:19:31;5.78;;;3.85;;
82473;SDS011;72350;53.232;6.556;2023-09-07T11:21:59;4.97;;;3.85;;
82473;SDS011;72350;53.232;6.556;2023-09-07T11:24:30;6.45;;;3.95;;
82473;SDS011;72350;53.232;6.556;2023-09-07T11:26:58;6.95;;;3.72;;
82473;SDS011;72350;53.232;6.556;2023-09-07T11:29:26;4.45;;;3.53;;
82473;SDS011;72350;53.232;6.556;2023-09-07T11:32:04;7.97;;;3.78;;
82473;SDS011;72350;53.232;6.556;2023-09-07T11:34:33;5.50;;;3.97;;
82473;SDS011;72350;53.232;6.556;2023-09-07T11:37:02;4.45;;;3.80;;
82473;SDS011;72350;53.232;6.556;2023-09-07T11:39:30;4.65;;;3.60;;
82473;SDS011;72350;53.232;6.556;2023-09-07T11:41:58;5.10;;;3.45;;
82473;SDS011;72350;53.232;6.556;2023-09-07T11:44:26;4.72;;;3.83;;
82473;SDS011;72350;53.232;6.556;2023-09-07T11:46:54;6.72;;;3.78;;
82473;SDS011;72350;53.232;6.556;2023-09-07T11:49:23;6.40;;;3.58;;
82473;SDS011;72350;53.232;6.556;2023-09-07T11:51:52;6.70;;;3.83;;
82473;SDS011;72350;53.232;6.556;2023-09-07T11:54:20;3.75;;;3.45;;
82473;SDS011;72350;53.232;6.556;2023-09-07T11:56:49;3.63;;;3.20;;
82473;SDS011;72350;53.232;6.556;2023-09-07T11:59:17;4.20;;;3.45;;
82473;SDS011;72350;53.232;6.556;2023-09-07T12:01:45;4.85;;;4.20;;
82473;SDS011;72350;53.232;6.556;2023-09-07T12:04:14;6.85;;;3.60;;
82473;SDS011;72350;53.232;6.556;2023-09-07T12:06:43;6.72;;;3.85;;
82473;SDS011;72350;53.232;6.556;2023-09-07T12:09:11;5.43;;;3.97;;
82473;SDS011;72350;53.232;6.556;2023-09-07T12:11:41;5.18;;;3.63;;
82473;SDS011;72350;53.232;6.556;2023-09-07T12:14:10;6.80;;;4.18;;
82473;SDS011;72350;53.232;6.556;2023-09-07T12:16:38;4.78;;;4.15;;
82473;SDS011;72350;53.232;6.556;2023-09-07T12:19:06;7.38;;;3.80;;
82473;SDS011;72350;53.232;6.556;2023-09-07T12:21:35;4.75;;;3.72;;
82473;SDS011;72350;53.232;6.556;2023-09-07T12:24:03;6.03;;;4.30;;
82473;SDS011;72350;53.232;6.556;2023-09-07T12:26:32;7.13;;;3.42;;
82473;SDS011;72350;53.232;6.556;2023-09-07T12:29:00;4.40;;;4.00;;
82473;SDS011;72350;53.232;6.556;2023-09-07T12:31:28;6.55;;;3.78;;
82473;SDS011;72350;53.232;6.556;2023-09-07T12:33:57;6.38;;;4.43;;
82473;SDS011;72350;53.232;6.556;2023-09-07T12:36:25;9.75;;;3.80;;
82473;SDS011;72350;53.232;6.556;2023-09-07T12:38:57;5.28;;;3.83;;
82473;SDS011;72350;53.232;6.556;2023-09-07T12:41:27;4.70;;;4.22;;
82473;SDS011;72350;53.232;6.556;2023-09-07T12:43:57;6.47;;;3.90;;
82473;SDS011;72350;53.232;6.556;2023-09-07T12:46:25;8.63;;;4.05;;
82473;SDS011;72350;53.232;6.556;2023-09-07T12:48:53;8.30;;;4.00;;
82473;SDS011;72350;53.232;6.556;2023-09-07T12:51:21;6.18;;;4.38;;
82473;SDS011;72350;53.232;6.556;2023-09-07T12:53:48;4.20;;;3.80;;
82473;SDS011;72350;53.232;6.556;2023-09-07T12:56:19;6.95;;;3.90;;
82473;SDS011;72350;53.232;6.556;2023-09-07T12:58:47;7.72;;;3.95;;
82473;SDS011;72350;53.232;6.556;2023-09-07T13:01:15;7.03;;;4.15;;
82473;SDS011;72350;53.232;6.556;2023-09-07T13:03:44;6.72;;;4.88;;
82473;SDS011;72350;53.232;6.556;2023-09-07T13:06:12;5.45;;;4.10;;
82473;SDS011;72350;53.232;6.556;2023-09-07T13:08:43;8.02;;;4.03;;
82473;SDS011;72350;53.232;6.556;2023-09-07T13:11:12;5.03;;;4.20;;
82473;SDS011;72350;53.232;6.556;2023-09-07T13:13:41;8.77;;;4.32;;
82473;SDS011;72350;53.232;6.556;2023-09-07T13:16:09;6.55;;;4.13;;
82473;SDS011;72350;53.232;6.556;2023-09-07T13:18:38;6.50;;;4.30;;
82473;SDS011;72350;53.232;6.556;2023-09-07T13:21:05;8.85;;;4.07;;
82473;SDS011;72350;53.232;6.556;2023-09-07T13:23:33;6.68;;;4.05;;
82473;SDS011;72350;53.232;6.556;2023-09-07T13:26:01;6.00;;;4.03;;
82473;SDS011;72350;53.232;6.556;2023-09-07T13:28:30;4.25;;;3.95;;
82473;SDS011;72350;53.232;6.556;2023-09-07T13:31:00;6.97;;;4.03;;
82473;SDS011;72350;53.232;6.556;2023-09-07T13:33:29;7.18;;;4.22;;
82473;SDS011;72350;53.232;6.556;2023-09-07T13:35:58;6.45;;;4.00;;
82473;SDS011;72350;53.232;6.556;2023-09-07T13:38:26;5.75;;;3.70;;
82473;SDS011;72350;53.232;6.556;2023-09-07T13:40:54;44.40;;;6.10;;
82473;SDS011;72350;53.232;6.556;2023-09-07T13:43:22;4.68;;;4.00;;
82473;SDS011;72350;53.232;6.556;2023-09-07T13:45:51;4.93;;;4.20;;
82473;SDS011;72350;53.232;6.556;2023-09-07T13:48:20;8.02;;;3.55;;
82473;SDS011;72350;53.232;6.556;2023-09-07T13:50:48;5.03;;;3.92;;
82473;SDS011;72350;53.232;6.556;2023-09-07T13:53:16;4.45;;;4.00;;
82473;SDS011;72350;53.232;6.556;2023-09-07T13:55:44;14.38;;;4.28;;
82473;SDS011;72350;53.232;6.556;2023-09-07T13:58:13;5.57;;;3.95;;
82473;SDS011;72350;53.232;6.556;2023-09-07T14:00:41;5.72;;;3.90;;
82473;SDS011;72350;53.232;6.556;2023-09-07T14:03:09;4.10;;;3.50;;
82473;SDS011;72350;53.232;6.556;2023-09-07T14:05:38;7.88;;;4.00;;
82473;SDS011;72350;53.232;6.556;2023-09-07T14:08:07;5.30;;;3.63;;
82473;SDS011;72350;53.232;6.556;2023-09-07T14:10:34;6.35;;;3.38;;
82473;SDS011;72350;53.232;6.556;2023-09-07T14:13:03;5.95;;;4.07;;
82473;SDS011;72350;53.232;6.556;2023-09-07T14:15:31;4.93;;;4.18;;
82473;SDS011;72350;53.232;6.556;2023-09-07T14:17:59;7.57;;;3.92;;
82473;SDS011;72350;53.232;6.556;2023-09-07T14:20:28;4.93;;;3.65;;
82473;SDS011;72350;53.232;6.556;2023-09-07T14:22:57;5.75;;;4.13;;
82473;SDS011;72350;53.232;6.556;2023-09-07T14:25:27;8.65;;;4.15;;
82473;SDS011;72350;53.232;6.556;2023-09-07T14:27:55;7.32;;;3.58;;
82473;SDS011;72350;53.232;6.556;2023-09-07T14:30:22;5.30;;;3.33;;
82473;SDS011;72350;53.232;6.556;2023-09-07T14:32:50;5.75;;;3.85;;
82473;SDS011;72350;53.232;6.556;2023-09-07T14:35:18;6.18;;;3.47;;
82473;SDS011;72350;53.232;6.556;2023-09-07T14:37:46;4.57;;;3.83;;
82473;SDS011;72350;53.232;6.556;2023-09-07T14:40:15;7.47;;;3.50;;
82473;SDS011;72350;53.232;6.556;2023-09-07T14:42:45;3.30;;;3.00;;
82473;SDS011;72350;53.232;6.556;2023-09-07T14:45:13;8.80;;;3.67;;
82473;SDS011;72350;53.232;6.556;2023-09-07T14:47:41;6.63;;;3.70;;
82473;SDS011;72350;53.232;6.556;2023-09-07T14:50:10;5.95;;;3.25;;
82473;SDS011;72350;53.232;6.556;2023-09-07T14:52:37;4.93;;;3.67;;
82473;SDS011;72350;53.232;6.556;2023-09-07T14:55:08;3.75;;;3.13;;
82473;SDS011;72350;53.232;6.556;2023-09-07T14:57:37;6.50;;;3.78;;